Terminal Aerodrome Forecast
Issued by NWS Mt. Holly, NJ

Home | Current Version | Previous Version | Text Only | Print | Product List | Glossary On
Versions: 1 2 3 4 5 6 7 8 9 10 11 12 13 14 15 16 17
000
FTUS41 KPHI 262328
TAFACY
TAF
KACY 262328Z 2700/2724 16005KT P6SM FEW080
     FM270300 VRB03KT P6SM FEW080
     FM271300 31010KT P6SM SCT070
     FM271600 31012G22KT P6SM BKN050
     FM272300 31010KT P6SM SCT070=

USA.gov is the U.S. government's official web portal to all federal, state and local government web resources and services.